Time;durP1;ratioP1;P1;durP2;ratioP2;P2;SDS_P1;SDS_P2;PMS_P1;PMS_P2;Temp;Humidity;BMP_temperature;BMP_pressure;BME280_temperature;BME280_humidity;BME280_pressure;Samples;Min_cycle;Max_cycle;Signal;HPM_P1;HPM_P2
2022/02/21 00:00:24;;;;;;;4.95;3.13;;;;;;;;;;5072266;28;20066;-39
2022/02/21 00:02:51;;;;;;;4.72;2.80;;;;;;;;;;5071622;28;20055;-39
2022/02/21 00:05:17;;;;;;;4.35;2.75;;;;;;;;;;5072169;28;20047;-40
2022/02/21 00:07:44;;;;;;;7.28;3.38;;;;;;;;;;5071275;28;20480;-39
2022/02/21 00:10:11;;;;;;;3.70;2.75;;;;;;;;;;5072173;28;20107;-39
2022/02/21 00:12:37;;;;;;;4.25;2.65;;;;;;;;;;5070595;28;20036;-39
2022/02/21 00:15:03;;;;;;;4.68;2.65;;;;;;;;;;5072285;28;20021;-39
2022/02/21 00:17:29;;;;;;;5.28;2.45;;;;;;;;;;5071934;28;20028;-39
2022/02/21 00:19:54;;;;;;;3.42;2.50;;;;;;;;;;5072232;28;20039;-39
2022/02/21 00:22:20;;;;;;;3.80;2.83;;;;;;;;;;5071712;28;20039;-39
2022/02/21 00:24:45;;;;;;;3.67;2.40;;;;;;;;;;5071862;28;20025;-39
2022/02/21 00:27:11;;;;;;;3.33;2.28;;;;;;;;;;5071868;28;20085;-39
2022/02/21 00:29:36;;;;;;;4.75;3.00;;;;;;;;;;5071660;28;20497;-40
2022/02/21 00:32:02;;;;;;;4.45;2.63;;;;;;;;;;5071560;28;20064;-39
2022/02/21 00:34:28;;;;;;;5.25;2.65;;;;;;;;;;5071507;28;20032;-39
2022/02/21 00:36:54;;;;;;;5.85;3.30;;;;;;;;;;5071711;28;20502;-39
2022/02/21 00:39:20;;;;;;;4.20;2.08;;;;;;;;;;5071904;28;20020;-39
2022/02/21 00:41:45;;;;;;;4.50;2.65;;;;;;;;;;5071620;28;20029;-39
2022/02/21 00:44:11;;;;;;;4.90;2.65;;;;;;;;;;5071801;28;20044;-39
2022/02/21 00:46:36;;;;;;;4.10;3.03;;;;;;;;;;5071433;28;20027;-39
2022/02/21 00:49:03;;;;;;;4.57;2.53;;;;;;;;;;5071582;28;20027;-39
2022/02/21 00:51:29;;;;;;;4.93;3.28;;;;;;;;;;5071369;28;20024;-39
2022/02/21 00:53:55;;;;;;;2.60;1.92;;;;;;;;;;5071362;28;20089;-39
2022/02/21 00:56:21;;;;;;;4.68;2.92;;;;;;;;;;5070183;28;20437;-39
2022/02/21 00:58:46;;;;;;;3.63;2.08;;;;;;;;;;5071275;28;20020;-40
2022/02/21 01:01:12;;;;;;;2.70;2.35;;;;;;;;;;5071373;28;20021;-39
2022/02/21 01:03:38;;;;;;;3.25;2.10;;;;;;;;;;5071423;28;20039;-39
2022/02/21 01:06:03;;;;;;;3.65;2.40;;;;;;;;;;5071602;28;20027;-40
2022/02/21 01:08:29;;;;;;;4.50;2.40;;;;;;;;;;5071217;28;20492;-39
2022/02/21 01:10:55;;;;;;;3.50;2.40;;;;;;;;;;5071309;28;20031;-39
2022/02/21 01:13:20;;;;;;;3.80;1.88;;;;;;;;;;5071433;28;20023;-39
2022/02/21 01:15:46;;;;;;;2.88;1.90;;;;;;;;;;5071240;28;20059;-39
2022/02/21 01:18:11;;;;;;;5.57;2.25;;;;;;;;;;5071134;28;20374;-40
2022/02/21 01:20:37;;;;;;;2.80;1.85;;;;;;;;;;5071165;28;20032;-39
2022/02/21 01:23:02;;;;;;;4.25;2.55;;;;;;;;;;5073145;28;20032;-39
2022/02/21 01:25:27;;;;;;;2.80;1.83;;;;;;;;;;5075497;28;20047;-39
2022/02/21 01:27:53;;;;;;;4.78;1.42;;;;;;;;;;5075299;28;20493;-39
2022/02/21 01:30:19;;;;;;;3.20;1.83;;;;;;;;;;5075009;28;20036;-39
2022/02/21 01:32:44;;;;;;;3.08;1.67;;;;;;;;;;5074285;28;20040;-39
2022/02/21 01:35:10;;;;;;;2.30;1.70;;;;;;;;;;5075318;28;20079;-39
2022/02/21 01:37:35;;;;;;;2.80;1.85;;;;;;;;;;5075210;28;20020;-40
2022/02/21 01:40:01;;;;;;;2.85;1.48;;;;;;;;;;5075072;28;20043;-39
2022/02/21 01:42:26;;;;;;;3.20;1.65;;;;;;;;;;5074850;28;20064;-39
2022/02/21 01:44:52;;;;;;;2.00;1.45;;;;;;;;;;5073568;28;20190;-39
2022/02/21 01:47:21;;;;;;;2.72;1.42;;;;;;;;;;5074016;28;20058;-39
2022/02/21 01:49:47;;;;;;;2.13;1.40;;;;;;;;;;5074806;28;20483;-40
2022/02/21 01:52:12;;;;;;;1.50;1.20;;;;;;;;;;5074740;28;20023;-39
2022/02/21 01:54:38;;;;;;;2.90;2.15;;;;;;;;;;5074651;28;20040;-39
2022/02/21 01:57:04;;;;;;;3.70;1.15;;;;;;;;;;5074931;28;20035;-39
2022/02/21 01:59:31;;;;;;;2.85;1.02;;;;;;;;;;5073206;28;20062;-39
2022/02/21 02:01:56;;;;;;;2.30;1.75;;;;;;;;;;5074798;28;20051;-39
2022/02/21 02:04:22;;;;;;;2.60;1.30;;;;;;;;;;5074362;28;20052;-39
2022/02/21 02:06:48;;;;;;;3.00;1.60;;;;;;;;;;5074479;28;20024;-39
2022/02/21 02:09:13;;;;;;;2.15;1.38;;;;;;;;;;5074364;28;20064;-39
2022/02/21 02:11:39;;;;;;;2.28;1.60;;;;;;;;;;5074390;28;20028;-39
2022/02/21 02:14:05;;;;;;;1.95;1.30;;;;;;;;;;5074214;28;20085;-39
2022/02/21 02:16:31;;;;;;;2.92;2.13;;;;;;;;;;5074459;28;20017;-39
2022/02/21 02:18:57;;;;;;;2.95;2.00;;;;;;;;;;5074366;28;20054;-39
2022/02/21 02:21:26;;;;;;;1.48;1.27;;;;;;;;;;5072727;28;20021;-39
2022/02/21 02:23:52;;;;;;;4.25;1.45;;;;;;;;;;5074098;28;20045;-39
2022/02/21 02:26:17;;;;;;;2.80;1.52;;;;;;;;;;5074414;28;20424;-39
2022/02/21 02:28:46;;;;;;;3.17;2.30;;;;;;;;;;5074018;28;20028;-39
2022/02/21 02:31:12;;;;;;;2.17;1.52;;;;;;;;;;5073990;28;20044;-39
2022/02/21 02:33:37;;;;;;;4.55;2.17;;;;;;;;;;5073787;28;20028;-39
2022/02/21 02:36:04;;;;;;;3.53;2.20;;;;;;;;;;5074225;28;20040;-39
2022/02/21 02:38:30;;;;;;;5.30;2.00;;;;;;;;;;5073879;28;20021;-39
2022/02/21 02:40:56;;;;;;;7.03;2.40;;;;;;;;;;5073934;28;20087;-39
2022/02/21 02:43:22;;;;;;;6.05;2.33;;;;;;;;;;5073999;28;20170;-39
2022/02/21 02:45:47;;;;;;;4.18;2.20;;;;;;;;;;5073850;28;20403;-39
2022/02/21 02:48:13;;;;;;;2.75;1.73;;;;;;;;;;5073685;28;20387;-39
2022/02/21 02:50:38;;;;;;;7.75;3.15;;;;;;;;;;5073903;28;20032;-39
2022/02/21 02:53:04;;;;;;;6.18;3.22;;;;;;;;;;5074030;28;20028;-39
2022/02/21 02:55:29;;;;;;;8.68;2.75;;;;;;;;;;5073861;28;20020;-39
2022/02/21 02:57:55;;;;;;;6.80;2.33;;;;;;;;;;5073500;28;20028;-39
2022/02/21 03:00:22;;;;;;;5.75;2.63;;;;;;;;;;5073784;28;20013;-39
2022/02/21 03:02:47;;;;;;;6.65;2.45;;;;;;;;;;5073282;28;20504;-39
2022/02/21 03:05:13;;;;;;;10.00;2.83;;;;;;;;;;5073710;28;20103;-42
2022/02/21 03:07:38;;;;;;;3.50;1.95;;;;;;;;;;5073343;28;20044;-39
2022/02/21 03:10:04;;;;;;;4.32;2.08;;;;;;;;;;5073310;28;20052;-39
2022/02/21 03:12:29;;;;;;;6.63;2.90;;;;;;;;;;5073169;28;20039;-39
2022/02/21 03:14:57;;;;;;;10.73;2.63;;;;;;;;;;5072073;28;20025;-39
2022/02/21 03:17:23;;;;;;;5.60;3.00;;;;;;;;;;5073025;28;20043;-39
2022/02/21 03:19:49;;;;;;;6.43;2.80;;;;;;;;;;5073252;28;20020;-39
2022/02/21 03:22:14;;;;;;;3.08;1.77;;;;;;;;;;5073377;28;20036;-39
2022/02/21 03:24:40;;;;;;;2.90;2.08;;;;;;;;;;5072867;28;20039;-39
2022/02/21 03:27:05;;;;;;;4.93;1.90;;;;;;;;;;5073156;28;20052;-39
2022/02/21 03:29:30;;;;;;;6.20;2.83;;;;;;;;;;5071628;28;20125;-39
2022/02/21 03:31:56;;;;;;;3.22;2.10;;;;;;;;;;5072674;28;20056;-39
2022/02/21 03:34:22;;;;;;;9.90;2.72;;;;;;;;;;5072726;28;20104;-39
2022/02/21 03:36:47;;;;;;;10.02;2.33;;;;;;;;;;5073221;28;20028;-39
2022/02/21 03:39:12;;;;;;;7.00;3.20;;;;;;;;;;5072824;28;20065;-39
2022/02/21 03:41:38;;;;;;;6.25;3.17;;;;;;;;;;5072918;28;20031;-39
2022/02/21 03:44:03;;;;;;;7.47;3.10;;;;;;;;;;5054716;28;20029;-39
2022/02/21 03:46:29;;;;;;;5.18;2.55;;;;;;;;;;5072037;28;20042;-39
2022/02/21 03:48:55;;;;;;;10.38;3.65;;;;;;;;;;5071293;28;20052;-39
2022/02/21 03:51:20;;;;;;;3.63;2.28;;;;;;;;;;5072601;28;20078;-39
2022/02/21 03:53:46;;;;;;;7.78;2.90;;;;;;;;;;5072582;28;20028;-39
2022/02/21 03:56:11;;;;;;;12.98;2.88;;;;;;;;;;5072713;28;20071;-39
2022/02/21 03:58:37;;;;;;;6.65;3.65;;;;;;;;;;5072615;28;20034;-39
2022/02/21 04:01:02;;;;;;;8.13;3.10;;;;;;;;;;5072161;28;20425;-39
2022/02/21 04:03:28;;;;;;;6.53;3.13;;;;;;;;;;5072087;28;20035;-39
2022/02/21 04:05:53;;;;;;;7.35;3.63;;;;;;;;;;5072227;28;20049;-39
2022/02/21 04:08:18;;;;;;;6.80;2.70;;;;;;;;;;5072498;28;20020;-39
2022/02/21 04:10:44;;;;;;;8.25;2.63;;;;;;;;;;5072036;28;20028;-39
2022/02/21 04:13:09;;;;;;;3.90;2.35;;;;;;;;;;5071950;28;20073;-39
2022/02/21 04:15:35;;;;;;;5.85;2.67;;;;;;;;;;5072257;28;20108;-39
2022/02/21 04:18:00;;;;;;;5.70;2.85;;;;;;;;;;5072062;28;20383;-39
2022/02/21 04:20:30;;;;;;;12.85;3.50;;;;;;;;;;5071824;28;20052;-40
2022/02/21 04:22:55;;;;;;;8.23;3.83;;;;;;;;;;5070883;28;20029;-39
2022/02/21 04:25:21;;;;;;;7.63;3.47;;;;;;;;;;5071969;28;20107;-39
2022/02/21 04:27:51;;;;;;;5.68;3.20;;;;;;;;;;5071836;28;20028;-40
2022/02/21 04:30:18;;;;;;;11.00;3.08;;;;;;;;;;5071474;28;20101;-39
2022/02/21 04:32:46;;;;;;;11.68;3.75;;;;;;;;;;5071910;28;20144;-39
2022/02/21 04:35:12;;;;;;;8.23;3.92;;;;;;;;;;5070441;28;20033;-39
2022/02/21 04:37:37;;;;;;;10.57;4.10;;;;;;;;;;5071885;28;20024;-39
2022/02/21 04:40:03;;;;;;;8.55;4.05;;;;;;;;;;5071747;28;20074;-39
2022/02/21 04:42:29;;;;;;;14.32;4.55;;;;;;;;;;5071336;28;20024;-39
2022/02/21 04:44:55;;;;;;;12.93;4.63;;;;;;;;;;5071625;28;20036;-39
2022/02/21 04:47:20;;;;;;;10.68;5.05;;;;;;;;;;5071685;28;20101;-39
2022/02/21 04:49:46;;;;;;;13.80;5.80;;;;;;;;;;5071344;28;20039;-39
2022/02/21 04:52:12;;;;;;;14.25;5.22;;;;;;;;;;5071436;28;20020;-39
2022/02/21 04:54:37;;;;;;;13.05;4.93;;;;;;;;;;5071432;28;20459;-39
2022/02/21 04:57:03;;;;;;;12.52;5.07;;;;;;;;;;5070802;28;20124;-39
2022/02/21 04:59:29;;;;;;;12.98;4.78;;;;;;;;;;5071345;28;20056;-40
2022/02/21 05:01:54;;;;;;;14.40;4.72;;;;;;;;;;5071640;28;20056;-39
2022/02/21 05:04:20;;;;;;;9.10;4.22;;;;;;;;;;5071494;28;20044;-39
2022/02/21 05:06:45;;;;;;;9.23;4.05;;;;;;;;;;5071253;28;20100;-39
2022/02/21 05:09:11;;;;;;;6.80;3.10;;;;;;;;;;5071321;28;20479;-39
2022/02/21 05:11:36;;;;;;;12.13;5.43;;;;;;;;;;5071479;28;20077;-39
2022/02/21 05:14:02;;;;;;;13.82;6.47;;;;;;;;;;5071220;28;20040;-39
2022/02/21 05:16:27;;;;;;;17.02;5.78;;;;;;;;;;5071415;28;20089;-39
2022/02/21 05:18:53;;;;;;;10.68;4.60;;;;;;;;;;5071145;28;20064;-39
2022/02/21 05:21:18;;;;;;;13.23;5.05;;;;;;;;;;5071201;28;20020;-39
2022/02/21 05:23:44;;;;;;;18.50;6.15;;;;;;;;;;5071263;28;20048;-39
2022/02/21 05:26:10;;;;;;;15.13;6.45;;;;;;;;;;5071093;28;20023;-39
2022/02/21 05:28:35;;;;;;;15.63;5.47;;;;;;;;;;5071318;28;20032;-41
2022/02/21 05:31:01;;;;;;;17.38;5.90;;;;;;;;;;5069917;28;20052;-39
2022/02/21 05:33:26;;;;;;;13.35;5.30;;;;;;;;;;5071187;28;20421;-39
2022/02/21 05:35:52;;;;;;;10.55;4.50;;;;;;;;;;5071017;28;20428;-39
2022/02/21 05:38:17;;;;;;;12.77;5.35;;;;;;;;;;5071379;28;20032;-39
2022/02/21 05:40:43;;;;;;;14.82;5.60;;;;;;;;;;5069547;28;20372;-39
2022/02/21 05:43:08;;;;;;;18.05;6.18;;;;;;;;;;5071172;28;20051;-39
2022/02/21 05:45:34;;;;;;;15.50;5.75;;;;;;;;;;5070765;28;20493;-39
2022/02/21 05:47:59;;;;;;;16.00;5.93;;;;;;;;;;5070945;28;20089;-39
2022/02/21 05:50:25;;;;;;;14.55;6.10;;;;;;;;;;5070846;28;20031;-39
2022/02/21 05:52:50;;;;;;;9.73;4.38;;;;;;;;;;5070774;28;20032;-39
2022/02/21 05:55:16;;;;;;;10.50;5.15;;;;;;;;;;5070726;28;20031;-39
2022/02/21 05:57:42;;;;;;;12.65;5.47;;;;;;;;;;5070840;28;20034;-39
2022/02/21 06:00:08;;;;;;;17.58;6.55;;;;;;;;;;5071061;28;20028;-40
2022/02/21 06:02:33;;;;;;;11.23;4.75;;;;;;;;;;5070599;28;20025;-40
2022/02/21 06:04:59;;;;;;;14.07;6.18;;;;;;;;;;5071059;28;20032;-40
2022/02/21 06:07:25;;;;;;;12.52;6.15;;;;;;;;;;5070645;28;20031;-39
2022/02/21 06:09:51;;;;;;;12.13;5.55;;;;;;;;;;5073830;28;20112;-39
2022/02/21 06:12:16;;;;;;;14.18;6.22;;;;;;;;;;5074635;28;20024;-39
2022/02/21 06:14:42;;;;;;;11.32;5.35;;;;;;;;;;5074360;28;20025;-40
2022/02/21 06:17:08;;;;;;;15.45;6.80;;;;;;;;;;5074640;28;20028;-39
2022/02/21 06:19:33;;;;;;;14.32;5.18;;;;;;;;;;5074279;28;20017;-39
2022/02/21 06:21:59;;;;;;;10.63;5.82;;;;;;;;;;5074293;28;20036;-39
2022/02/21 06:24:25;;;;;;;13.68;5.47;;;;;;;;;;5073894;28;20047;-39
2022/02/21 06:26:50;;;;;;;19.92;6.35;;;;;;;;;;5074501;28;20025;-39
2022/02/21 06:29:16;;;;;;;13.52;5.13;;;;;;;;;;5074377;28;20043;-39
2022/02/21 06:31:41;;;;;;;13.75;5.90;;;;;;;;;;5073859;28;20064;-39
2022/02/21 06:34:07;;;;;;;16.52;5.82;;;;;;;;;;5073986;28;20115;-39
2022/02/21 06:36:34;;;;;;;14.13;6.30;;;;;;;;;;5073868;28;20032;-39
2022/02/21 06:38:59;;;;;;;15.57;6.72;;;;;;;;;;5074200;28;20024;-39
2022/02/21 06:41:25;;;;;;;14.57;5.90;;;;;;;;;;5073692;28;20025;-40
2022/02/21 06:43:51;;;;;;;11.80;5.30;;;;;;;;;;5073720;28;20063;-39
2022/02/21 06:46:17;;;;;;;10.63;5.35;;;;;;;;;;5073674;28;20020;-40
2022/02/21 06:48:43;;;;;;;12.35;6.20;;;;;;;;;;5073611;28;20023;-39
2022/02/21 06:51:08;;;;;;;15.80;4.90;;;;;;;;;;5073856;28;20028;-39
2022/02/21 06:53:34;;;;;;;14.75;6.45;;;;;;;;;;5073555;28;20433;-40
2022/02/21 06:56:00;;;;;;;14.20;6.55;;;;;;;;;;5073647;28;20398;-39
2022/02/21 06:58:25;;;;;;;19.40;6.35;;;;;;;;;;5073434;28;20458;-39
2022/02/21 07:00:51;;;;;;;17.83;6.25;;;;;;;;;;5073853;28;20036;-40
2022/02/21 07:03:17;;;;;;;13.35;6.43;;;;;;;;;;5073458;28;20032;-39
2022/02/21 07:05:42;;;;;;;19.05;5.90;;;;;;;;;;5073637;28;20099;-39
2022/02/21 07:08:09;;;;;;;12.63;5.45;;;;;;;;;;5073449;28;20440;-39
2022/02/21 07:10:35;;;;;;;15.05;5.63;;;;;;;;;;5073404;28;20032;-39
2022/02/21 07:13:00;;;;;;;19.55;7.05;;;;;;;;;;5073542;28;20112;-39
2022/02/21 07:15:26;;;;;;;16.10;6.85;;;;;;;;;;5073257;28;20386;-39
2022/02/21 07:17:51;;;;;;;16.58;8.05;;;;;;;;;;5073338;28;20156;-39
2022/02/21 07:20:17;;;;;;;13.65;6.50;;;;;;;;;;5072190;28;20024;-39
2022/02/21 07:22:43;;;;;;;17.00;7.88;;;;;;;;;;5073148;28;20025;-40
2022/02/21 07:25:09;;;;;;;15.23;6.75;;;;;;;;;;5073169;28;20028;-39
2022/02/21 07:27:51;;;;;;;17.67;6.63;;;;;;;;;;5072861;28;20024;-39
2022/02/21 07:30:19;;;;;;;14.98;6.13;;;;;;;;;;5073116;28;20387;-39
2022/02/21 07:32:45;;;;;;;19.23;6.72;;;;;;;;;;5073043;28;20028;-39
2022/02/21 07:35:11;;;;;;;15.80;7.15;;;;;;;;;;5073166;28;20020;-39
2022/02/21 07:37:39;;;;;;;17.00;7.43;;;;;;;;;;5072969;28;20020;-39
2022/02/21 07:40:05;;;;;;;14.35;7.18;;;;;;;;;;5073004;28;20394;-39
2022/02/21 07:42:31;;;;;;;17.95;7.53;;;;;;;;;;5072770;28;20116;-39
2022/02/21 07:44:56;;;;;;;11.65;6.03;;;;;;;;;;5072704;28;20475;-39
2022/02/21 07:47:22;;;;;;;14.70;6.65;;;;;;;;;;5072908;28;20111;-39
2022/02/21 07:49:47;;;;;;;17.88;6.72;;;;;;;;;;5072422;28;20044;-39
2022/02/21 07:52:12;;;;;;;14.43;6.50;;;;;;;;;;5072525;28;20107;-44
2022/02/21 07:54:38;;;;;;;14.07;7.05;;;;;;;;;;5072339;28;20062;-39
2022/02/21 07:57:06;;;;;;;14.63;6.65;;;;;;;;;;5072408;28;20474;-39
2022/02/21 07:59:32;;;;;;;16.05;7.20;;;;;;;;;;5072368;28;20518;-39
2022/02/21 08:01:58;;;;;;;16.83;6.25;;;;;;;;;;5072281;28;20576;-39
2022/02/21 08:04:24;;;;;;;15.30;7.80;;;;;;;;;;5072549;28;20055;-39
2022/02/21 08:06:50;;;;;;;17.45;7.22;;;;;;;;;;5072265;28;20008;-39
2022/02/21 08:09:16;;;;;;;17.42;7.68;;;;;;;;;;5072102;28;20040;-39
2022/02/21 08:11:41;;;;;;;15.55;6.38;;;;;;;;;;5072406;28;20023;-39
2022/02/21 08:14:07;;;;;;;24.13;8.70;;;;;;;;;;5072047;28;20107;-39
2022/02/21 08:16:34;;;;;;;16.27;7.32;;;;;;;;;;5072259;28;20017;-39
2022/02/21 08:19:00;;;;;;;14.68;5.95;;;;;;;;;;5072344;28;20071;-39
2022/02/21 08:21:25;;;;;;;17.13;8.30;;;;;;;;;;5072017;28;20048;-39
2022/02/21 08:23:51;;;;;;;16.83;6.57;;;;;;;;;;5071846;28;20040;-39
2022/02/21 08:26:16;;;;;;;20.15;6.70;;;;;;;;;;5072214;28;20017;-39
2022/02/21 08:28:42;;;;;;;20.42;7.80;;;;;;;;;;5072089;28;20074;-39
2022/02/21 08:31:07;;;;;;;18.30;7.13;;;;;;;;;;5071681;28;20170;-39
2022/02/21 08:33:33;;;;;;;20.90;8.02;;;;;;;;;;5071947;28;20060;-39
2022/02/21 08:35:59;;;;;;;17.98;7.30;;;;;;;;;;5072028;28;20506;-39
2022/02/21 08:38:24;;;;;;;15.75;7.15;;;;;;;;;;5071858;28;20036;-39
2022/02/21 08:40:50;;;;;;;12.82;7.38;;;;;;;;;;5071625;28;20549;-39
2022/02/21 08:43:16;;;;;;;16.45;7.68;;;;;;;;;;5071789;28;20044;-39
2022/02/21 08:45:41;;;;;;;16.33;6.97;;;;;;;;;;5071773;28;20459;-39
2022/02/21 08:48:07;;;;;;;17.13;7.68;;;;;;;;;;5071566;28;20032;-39
2022/02/21 08:50:34;;;;;;;17.33;8.25;;;;;;;;;;5071473;28;20024;-39
2022/02/21 08:52:59;;;;;;;18.38;8.85;;;;;;;;;;5071660;28;20445;-39
2022/02/21 08:55:24;;;;;;;14.18;7.82;;;;;;;;;;5071562;28;20017;-39
2022/02/21 08:57:50;;;;;;;15.65;8.40;;;;;;;;;;5071632;28;20032;-39
2022/02/21 09:00:16;;;;;;;23.88;9.68;;;;;;;;;;5071424;28;20019;-39
2022/02/21 09:02:44;;;;;;;24.00;8.23;;;;;;;;;;5071506;28;20043;-40
2022/02/21 09:05:10;;;;;;;20.10;9.27;;;;;;;;;;5071574;28;20040;-39
2022/02/21 09:07:36;;;;;;;22.85;9.10;;;;;;;;;;5071212;28;20479;-39
2022/02/21 09:10:01;;;;;;;18.80;9.35;;;;;;;;;;5071209;28;20035;-39
2022/02/21 09:12:28;;;;;;;26.13;11.57;;;;;;;;;;5071208;28;20028;-39
2022/02/21 09:14:56;;;;;;;14.80;8.55;;;;;;;;;;5071275;28;20047;-39
2022/02/21 09:17:22;;;;;;;26.65;8.48;;;;;;;;;;5071196;28;20036;-39
2022/02/21 09:19:47;;;;;;;19.65;8.90;;;;;;;;;;5071121;28;20536;-39
2022/02/21 09:22:13;;;;;;;20.55;9.60;;;;;;;;;;5071077;28;20079;-39
2022/02/21 09:24:38;;;;;;;21.98;9.68;;;;;;;;;;5071285;28;20033;-39
2022/02/21 09:27:04;;;;;;;23.73;9.50;;;;;;;;;;5071159;28;20406;-39
2022/02/21 09:29:29;;;;;;;18.35;8.63;;;;;;;;;;5071312;28;20060;-40
2022/02/21 09:31:56;;;;;;;22.00;8.77;;;;;;;;;;5070842;28;20518;-39
2022/02/21 09:34:22;;;;;;;18.55;8.93;;;;;;;;;;5071133;28;20028;-39
2022/02/21 09:36:47;;;;;;;16.65;8.30;;;;;;;;;;5071309;28;20036;-39
2022/02/21 09:39:13;;;;;;;17.52;7.93;;;;;;;;;;5069788;28;20366;-39
2022/02/21 09:41:39;;;;;;;17.83;8.00;;;;;;;;;;5071131;28;20043;-39
2022/02/21 09:44:04;;;;;;;18.25;7.32;;;;;;;;;;5073205;28;20375;-39
2022/02/21 09:46:31;;;;;;;16.40;7.90;;;;;;;;;;5074983;28;20471;-39
2022/02/21 09:48:58;;;;;;;16.80;8.27;;;;;;;;;;5075316;28;20414;-40
2022/02/21 09:51:24;;;;;;;15.95;7.70;;;;;;;;;;5074811;28;20504;-39
2022/02/21 09:53:50;;;;;;;17.90;8.38;;;;;;;;;;5075010;28;20025;-39
2022/02/21 09:56:15;;;;;;;17.02;8.25;;;;;;;;;;5074853;28;20498;-40
2022/02/21 09:58:40;;;;;;;20.83;7.85;;;;;;;;;;5074772;28;20039;-39
2022/02/21 10:01:06;;;;;;;16.20;7.28;;;;;;;;;;5074738;28;20063;-39
2022/02/21 10:03:38;;;;;;;13.60;6.82;;;;;;;;;;5074662;28;20036;-39
2022/02/21 10:06:25;;;;;;;18.00;7.32;;;;;;;;;;5074799;28;20028;-39
2022/02/21 10:09:00;;;;;;;12.88;6.75;;;;;;;;;;5074819;28;20035;-40
2022/02/21 10:11:28;;;;;;;20.52;9.30;;;;;;;;;;5074797;28;20052;-39
2022/02/21 10:14:14;;;;;;;18.38;7.45;;;;;;;;;;5074450;28;20020;-39
2022/02/21 10:16:41;;;;;;;11.63;6.68;;;;;;;;;;5074612;28;20106;-39
2022/02/21 10:19:22;;;;;;;17.85;7.30;;;;;;;;;;5074618;28;20104;-39
2022/02/21 10:22:08;;;;;;;16.83;8.73;;;;;;;;;;5074204;28;20086;-39
2022/02/21 10:24:38;;;;;;;14.70;6.50;;;;;;;;;;5073980;28;20394;-39
2022/02/21 10:27:05;;;;;;;18.55;6.63;;;;;;;;;;5074279;28;20031;-39
2022/02/21 10:29:34;;;;;;;16.10;8.02;;;;;;;;;;5074073;28;20028;-39
2022/02/21 10:32:07;;;;;;;13.93;8.10;;;;;;;;;;5073885;28;20052;-39
2022/02/21 10:34:34;;;;;;;14.93;6.85;;;;;;;;;;5074023;28;20398;-40
2022/02/21 10:36:59;;;;;;;17.67;8.10;;;;;;;;;;5074110;28;20120;-39
2022/02/21 10:39:25;;;;;;;11.45;6.65;;;;;;;;;;5073021;28;20032;-39
2022/02/21 10:41:54;;;;;;;21.08;8.00;;;;;;;;;;5074148;28;20016;-39
2022/02/21 10:44:28;;;;;;;23.67;9.52;;;;;;;;;;5073896;28;20037;-39
2022/02/21 10:47:06;;;;;;;20.65;8.45;;;;;;;;;;5073928;28;20379;-39
2022/02/21 10:49:32;;;;;;;13.57;7.88;;;;;;;;;;5073768;28;20124;-39
2022/02/21 10:52:01;;;;;;;14.20;8.25;;;;;;;;;;5073874;28;20021;-39
2022/02/21 10:54:28;;;;;;;23.70;10.13;;;;;;;;;;5073027;28;20059;-39
2022/02/21 10:56:53;;;;;;;16.70;8.23;;;;;;;;;;5072087;28;20082;-39
2022/02/21 10:59:20;;;;;;;22.27;8.88;;;;;;;;;;5073563;28;20476;-39
2022/02/21 11:01:46;;;;;;;24.52;9.98;;;;;;;;;;5073556;28;20024;-39
2022/02/21 11:04:12;;;;;;;18.05;8.32;;;;;;;;;;5073652;28;20064;-39
2022/02/21 11:06:38;;;;;;;12.52;7.00;;;;;;;;;;5073643;28;20020;-39
2022/02/21 11:09:04;;;;;;;19.23;8.13;;;;;;;;;;5073715;28;20042;-39
2022/02/21 11:11:32;;;;;;;22.80;9.27;;;;;;;;;;5073370;28;20028;-39
2022/02/21 11:13:58;;;;;;;19.15;9.85;;;;;;;;;;5073274;28;20028;-39
2022/02/21 11:16:24;;;;;;;21.52;8.23;;;;;;;;;;5073310;28;20471;-39
2022/02/21 11:18:50;;;;;;;27.27;10.48;;;;;;;;;;5073202;28;20120;-39
2022/02/21 11:21:16;;;;;;;17.27;8.98;;;;;;;;;;5073155;28;20360;-40
2022/02/21 11:23:42;;;;;;;24.75;9.50;;;;;;;;;;5073024;28;20036;-39
2022/02/21 11:26:17;;;;;;;27.27;10.45;;;;;;;;;;5073118;28;20017;-39
2022/02/21 11:28:44;;;;;;;24.88;10.15;;;;;;;;;;5072989;28;20025;-39
2022/02/21 11:31:11;;;;;;;31.45;14.02;;;;;;;;;;5072931;28;20055;-39
2022/02/21 11:33:56;;;;;;;25.35;9.82;;;;;;;;;;5072845;28;20105;-39
2022/02/21 11:36:25;;;;;;;26.50;10.40;;;;;;;;;;5072834;28;20032;-40
2022/02/21 11:38:52;;;;;;;30.77;12.23;;;;;;;;;;5072785;28;20036;-39
2022/02/21 11:41:17;;;;;;;26.80;11.13;;;;;;;;;;5073125;28;20162;-39
2022/02/21 11:43:44;;;;;;;25.30;10.68;;;;;;;;;;5072772;28;20119;-39
2022/02/21 11:46:11;;;;;;;31.65;11.75;;;;;;;;;;5073041;28;20029;-39
2022/02/21 11:48:59;;;;;;;28.92;13.25;;;;;;;;;;5072478;28;20399;-39
2022/02/21 11:51:26;;;;;;;29.70;11.02;;;;;;;;;;5072893;28;20029;-39
2022/02/21 11:53:52;;;;;;;28.58;12.75;;;;;;;;;;5071110;28;20013;-39
2022/02/21 11:56:17;;;;;;;25.08;11.82;;;;;;;;;;5072790;28;20529;-40
2022/02/21 11:58:45;;;;;;;27.75;12.30;;;;;;;;;;5072451;28;20023;-39
2022/02/21 12:01:13;;;;;;;33.25;12.38;;;;;;;;;;5072440;28;20606;-39
2022/02/21 12:03:39;;;;;;;33.70;11.10;;;;;;;;;;5072248;28;20608;-39
2022/02/21 12:06:04;;;;;;;30.10;12.52;;;;;;;;;;5071889;28;20104;-39
2022/02/21 12:08:30;;;;;;;37.25;13.05;;;;;;;;;;5072533;28;20045;-39
2022/02/21 12:11:03;;;;;;;29.33;11.70;;;;;;;;;;5072220;28;20479;-39
2022/02/21 12:13:31;;;;;;;37.28;13.88;;;;;;;;;;5070818;28;20107;-39
2022/02/21 12:16:00;;;;;;;32.53;14.52;;;;;;;;;;5072514;28;20028;-39
2022/02/21 12:18:26;;;;;;;31.77;15.45;;;;;;;;;;5072187;28;20031;-40
2022/02/21 12:21:11;;;;;;;34.78;13.18;;;;;;;;;;5071970;28;20017;-39
2022/02/21 12:23:39;;;;;;;34.28;14.23;;;;;;;;;;5071816;28;20036;-39
2022/02/21 12:26:05;;;;;;;30.40;13.75;;;;;;;;;;5072114;28;20021;-39
2022/02/21 12:28:34;;;;;;;31.50;13.63;;;;;;;;;;5071750;28;20032;-39
2022/02/21 12:31:00;;;;;;;35.05;13.52;;;;;;;;;;5071905;28;20403;-39
2022/02/21 12:33:31;;;;;;;37.28;14.07;;;;;;;;;;5071712;28;20035;-39
2022/02/21 12:36:04;;;;;;;36.08;15.23;;;;;;;;;;5071803;28;20121;-39
2022/02/21 12:38:38;;;;;;;30.33;12.98;;;;;;;;;;5071637;28;20079;-39
2022/02/21 12:41:11;;;;;;;25.27;13.18;;;;;;;;;;5071944;28;20079;-40
2022/02/21 12:43:44;;;;;;;29.60;12.27;;;;;;;;;;5071399;28;20047;-39
2022/02/21 12:46:13;;;;;;;32.72;11.57;;;;;;;;;;5071607;28;20429;-40
2022/02/21 12:48:39;;;;;;;28.50;12.73;;;;;;;;;;5071304;28;20056;-39
2022/02/21 12:51:06;;;;;;;22.88;11.73;;;;;;;;;;5071869;28;20390;-39
2022/02/21 12:53:32;;;;;;;27.23;10.65;;;;;;;;;;5071401;28;20021;-39
2022/02/21 12:56:00;;;;;;;28.02;11.20;;;;;;;;;;5070181;28;20088;-40
2022/02/21 12:58:38;;;;;;;27.67;11.68;;;;;;;;;;5071550;28;20529;-39
2022/02/21 13:01:14;;;;;;;22.25;10.10;;;;;;;;;;5071570;28;20036;-39
2022/02/21 13:03:39;;;;;;;26.30;9.65;;;;;;;;;;5053288;28;20045;-39
2022/02/21 13:06:05;;;;;;;20.80;9.25;;;;;;;;;;5071550;28;20032;-39
2022/02/21 13:08:35;;;;;;;23.48;10.52;;;;;;;;;;5071366;28;20101;-39
2022/02/21 13:11:01;;;;;;;30.05;11.25;;;;;;;;;;5071254;28;20036;-39
2022/02/21 13:13:27;;;;;;;26.08;9.50;;;;;;;;;;5071248;28;20410;-39
2022/02/21 13:15:53;;;;;;;28.48;10.02;;;;;;;;;;5071125;28;20025;-39
2022/02/21 13:18:19;;;;;;;22.08;9.25;;;;;;;;;;5070461;28;20036;-40
2022/02/21 13:20:47;;;;;;;22.65;11.00;;;;;;;;;;5071319;28;20027;-39
2022/02/21 13:23:14;;;;;;;20.15;9.15;;;;;;;;;;5070946;28;20037;-39
2022/02/21 13:25:43;;;;;;;15.70;7.78;;;;;;;;;;5071091;28;20035;-39
2022/02/21 13:28:22;;;;;;;10.85;6.47;;;;;;;;;;5070223;28;20112;-39
2022/02/21 13:30:48;;;;;;;24.42;9.77;;;;;;;;;;5071053;28;20143;-39
2022/02/21 13:33:17;;;;;;;22.00;8.95;;;;;;;;;;5071152;28;20025;-39
2022/02/21 13:35:55;;;;;;;15.30;7.32;;;;;;;;;;5070926;28;20082;-40
2022/02/21 13:38:24;;;;;;;16.70;7.72;;;;;;;;;;5071197;28;20482;-39
2022/02/21 13:40:56;;;;;;;16.10;7.82;;;;;;;;;;5071059;28;20046;-39
2022/02/21 13:43:23;;;;;;;8.77;5.07;;;;;;;;;;5071189;28;20047;-39
2022/02/21 13:45:52;;;;;;;10.00;5.88;;;;;;;;;;5071135;28;20020;-39
2022/02/21 13:48:23;;;;;;;15.60;5.70;;;;;;;;;;5071363;28;20040;-40
2022/02/21 13:50:56;;;;;;;14.60;6.40;;;;;;;;;;5070812;28;20467;-39
2022/02/21 13:53:33;;;;;;;13.60;6.88;;;;;;;;;;5071241;28;20360;-39
2022/02/21 13:56:02;;;;;;;7.35;5.00;;;;;;;;;;5070878;28;20188;-39
2022/02/21 13:58:34;;;;;;;15.75;5.05;;;;;;;;;;5070865;28;20021;-39
2022/02/21 14:01:09;;;;;;;8.93;5.28;;;;;;;;;;5070916;28;20078;-39
2022/02/21 14:03:37;;;;;;;12.52;6.35;;;;;;;;;;5070562;28;20040;-40
2022/02/21 14:06:06;;;;;;;7.78;5.65;;;;;;;;;;5070781;28;20035;-40
2022/02/21 14:08:42;;;;;;;10.40;6.28;;;;;;;;;;5070769;28;20548;-39
2022/02/21 14:11:08;;;;;;;8.48;5.32;;;;;;;;;;5070600;28;20067;-39
2022/02/21 14:13:35;;;;;;;12.90;5.78;;;;;;;;;;5070786;28;20020;-39
2022/02/21 14:16:10;;;;;;;9.50;5.55;;;;;;;;;;5070737;28;20052;-39
2022/02/21 14:18:36;;;;;;;10.05;4.85;;;;;;;;;;5070727;28;20059;-39
2022/02/21 14:21:05;;;;;;;9.60;5.47;;;;;;;;;;5070940;28;20035;-39
2022/02/21 14:23:31;;;;;;;11.30;4.93;;;;;;;;;;5070483;28;20036;-39
2022/02/21 14:25:57;;;;;;;9.73;4.65;;;;;;;;;;5070746;28;20031;-39
2022/02/21 14:28:22;;;;;;;12.98;6.95;;;;;;;;;;5070557;28;20028;-39
2022/02/21 14:30:48;;;;;;;11.05;6.00;;;;;;;;;;5073270;28;20052;-39